Time;durP1;ratioP1;P1;durP2;ratioP2;P2;SDS_P1;SDS_P2;PMS_P1;PMS_P2;Temp;Humidity;BMP_temperature;BMP_pressure;BME280_temperature;BME280_humidity;BME280_pressure;Samples;Min_cycle;Max_cycle;Signal;HPM_P1;HPM_P2
2022/06/06 00:01:00;;;;;;;4.53;3.20;;;;;;;20.91;59.10;101359.56;4838067;29;20394;-80
2022/06/06 00:03:25;;;;;;;5.03;3.05;;;;;;;20.90;59.11;101349.97;4837803;29;20059;-80
2022/06/06 00:05:51;;;;;;;4.97;2.97;;;;;;;20.93;59.01;101356.94;4839376;29;20029;-80
2022/06/06 00:08:17;;;;;;;3.10;2.80;;;;;;;20.91;58.59;101348.22;4823605;29;20095;-80
2022/06/06 00:10:44;;;;;;;3.40;3.00;;;;;;;20.93;58.64;101349.94;4839287;29;20397;-80
2022/06/06 00:13:12;;;;;;;5.13;2.85;;;;;;;20.91;58.39;101349.09;4839304;29;20118;-80
2022/06/06 00:15:38;;;;;;;4.22;3.05;;;;;;;20.92;58.23;101347.34;4854931;29;20067;-80
2022/06/06 00:18:04;;;;;;;4.65;3.10;;;;;;;20.90;58.27;101346.50;4839499;29;20452;-80
2022/06/06 00:20:31;;;;;;;5.18;3.92;;;;;;;20.91;59.03;101346.47;4838610;29;20120;-81
2022/06/06 00:23:00;;;;;;;5.63;3.17;;;;;;;20.90;58.11;101334.25;4838870;29;20040;-80
2022/06/06 00:25:27;;;;;;;3.33;2.90;;;;;;;20.93;58.34;101333.38;4825112;29;20109;-80
2022/06/06 00:27:52;;;;;;;3.42;3.13;;;;;;;20.92;57.98;101331.63;4856512;29;20038;-80
2022/06/06 00:30:18;;;;;;;3.97;2.85;;;;;;;20.91;58.45;101336.00;4824968;29;20026;-81
2022/06/06 00:35:27;;;;;;;3.05;2.75;;;;;;;20.91;58.11;101327.31;4855182;29;20045;-80
2022/06/06 00:37:53;;;;;;;3.60;2.90;;;;;;;20.91;58.01;101333.41;4838576;29;20038;-80
2022/06/06 00:40:22;;;;;;;5.82;3.13;;;;;;;20.90;57.77;101323.81;4838474;29;20033;-80
2022/06/06 00:42:47;;;;;;;3.63;2.95;;;;;;;20.93;57.86;101330.75;4838629;29;20097;-80
2022/06/06 00:45:27;;;;;;;3.65;2.85;;;;;;;20.92;57.87;101329.03;4822679;29;20065;-80
2022/06/06 00:47:59;;;;;;;3.40;2.70;;;;;;;20.93;57.56;101325.53;4845939;29;20022;-80
2022/06/06 00:50:28;;;;;;;3.50;2.88;;;;;;;20.93;57.66;101320.28;4865664;29;20060;-80
2022/06/06 00:52:55;;;;;;;3.28;2.80;;;;;;;20.92;57.89;101322.03;4865699;29;20092;-80
2022/06/06 00:55:27;;;;;;;3.15;2.63;;;;;;;20.92;57.89;101310.72;4862337;29;20033;-80
2022/06/06 00:58:00;;;;;;;3.45;2.70;;;;;;;20.92;57.83;101331.63;4843148;29;20063;-80
2022/06/06 01:00:26;;;;;;;4.95;2.60;;;;;;;20.92;57.42;101318.56;4856643;29;20118;-79
2022/06/06 01:02:56;;;;;;;5.13;3.25;;;;;;;20.92;57.46;101323.78;4826345;29;20034;-79
2022/06/06 01:05:23;;;;;;;3.97;3.20;;;;;;;20.93;57.63;101313.31;4841252;29;20026;-80
2022/06/06 01:07:48;;;;;;;4.53;3.05;;;;;;;20.93;57.40;101317.69;4856719;29;20034;-79
2022/06/06 01:10:15;;;;;;;3.42;2.50;;;;;;;20.94;57.63;101319.41;4840412;29;20044;-79
2022/06/06 01:12:43;;;;;;;4.72;2.90;;;;;;;20.91;57.58;101309.00;4809511;29;20513;-80
2022/06/06 01:15:13;;;;;;;4.70;3.05;;;;;;;20.92;57.37;101311.56;4839511;29;20033;-80
2022/06/06 01:17:50;;;;;;;3.08;2.55;;;;;;;20.90;57.28;101304.63;4824578;29;20062;-80
2022/06/06 01:20:37;;;;;;;5.97;2.85;;;;;;;20.92;57.00;101308.09;4855779;29;20065;-79
2022/06/06 01:23:38;;;;;;;3.75;2.45;;;;;;;20.91;57.06;101299.38;4856073;29;20447;-79
2022/06/06 01:26:40;;;;;;;3.65;2.67;;;;;;;20.94;56.96;101301.94;4830030;29;20069;-80
2022/06/06 01:29:25;;;;;;;3.85;2.80;;;;;;;20.94;57.04;101298.47;4840026;29;20026;-80
2022/06/06 01:32:04;;;;;;;3.10;2.63;;;;;;;20.93;56.84;101300.22;4856809;29;20026;-80
2022/06/06 01:34:33;;;;;;;3.17;2.72;;;;;;;20.91;56.95;101303.75;4855021;29;20026;-80
2022/06/06 01:37:00;;;;;;;2.95;2.53;;;;;;;20.94;56.64;101301.94;4839616;29;20054;-80
2022/06/06 01:39:28;;;;;;;3.40;2.63;;;;;;;20.94;56.80;101298.47;4825759;29;20393;-80
2022/06/06 01:42:10;;;;;;;4.55;2.80;;;;;;;20.95;56.96;101300.22;4840438;29;20101;-80
2022/06/06 01:44:41;;;;;;;3.80;2.60;;;;;;;20.95;56.66;101302.81;4855597;29;20029;-80
2022/06/06 01:47:14;;;;;;;3.67;2.70;;;;;;;20.95;56.73;101305.44;4839491;29;20026;-80
2022/06/06 01:49:41;;;;;;;3.78;2.47;;;;;;;20.93;56.58;101292.38;4855297;29;20026;-80
2022/06/06 01:52:10;;;;;;;3.10;2.50;;;;;;;20.95;56.57;101292.38;4838604;29;20030;-80
2022/06/06 01:54:36;;;;;;;3.08;2.70;;;;;;;20.97;56.46;101298.44;4838461;29;20022;-80
2022/06/06 01:57:05;;;;;;;4.05;2.70;;;;;;;20.94;56.30;101299.31;4852476;29;20485;-80
2022/06/06 01:59:31;;;;;;;3.42;2.60;;;;;;;20.96;56.29;101300.16;4852150;29;20473;-80
2022/06/06 02:01:56;;;;;;;3.55;2.88;;;;;;;20.95;56.34;101292.38;4820659;29;20026;-79
2022/06/06 02:04:22;;;;;;;4.68;2.78;;;;;;;20.95;56.34;101297.59;4821736;29;20358;-80
2022/06/06 02:06:48;;;;;;;3.42;2.55;;;;;;;20.94;56.42;101294.09;4835877;29;20049;-80
2022/06/06 02:09:13;;;;;;;3.75;2.60;;;;;;;20.94;56.48;101294.09;4851204;29;20485;-80
2022/06/06 02:11:40;;;;;;;3.30;2.70;;;;;;;20.95;56.47;101285.38;4820595;29;20058;-80
2022/06/06 02:14:06;;;;;;;2.88;2.40;;;;;;;20.95;56.39;101290.59;4852387;29;20030;-80
2022/06/06 02:16:32;;;;;;;2.83;2.42;;;;;;;20.96;56.34;101287.09;4836084;29;20038;-80
2022/06/06 02:18:57;;;;;;;3.40;2.28;;;;;;;20.97;56.35;101290.59;4821027;29;20040;-80
2022/06/06 02:21:23;;;;;;;4.95;2.88;;;;;;;20.96;56.35;101278.38;4851859;29;20033;-80
2022/06/06 02:23:49;;;;;;;3.42;2.60;;;;;;;20.97;56.19;101282.75;4850508;29;20120;-80
2022/06/06 02:26:17;;;;;;;5.30;2.53;;;;;;;20.97;56.37;101285.34;4835356;29;20058;-79
2022/06/06 02:28:43;;;;;;;2.55;2.35;;;;;;;20.96;56.29;101281.00;4835382;29;20101;-80
2022/06/06 02:31:09;;;;;;;5.03;2.40;;;;;;;20.95;56.28;101287.97;4834740;29;20101;-79
2022/06/06 02:33:36;;;;;;;2.80;2.20;;;;;;;20.96;56.09;101283.59;4834669;29;20030;-80
2022/06/06 02:36:03;;;;;;;3.47;2.80;;;;;;;20.96;56.34;101281.84;4835029;29;20094;-80
2022/06/06 02:38:29;;;;;;;2.55;2.30;;;;;;;20.97;56.26;101269.66;4849819;29;20094;-80
2022/06/06 02:41:07;;;;;;;2.65;2.30;;;;;;;20.95;56.03;101274.91;4835233;29;20034;-80
2022/06/06 02:43:34;;;;;;;3.33;2.60;;;;;;;20.95;56.27;101268.81;4850215;29;20022;-80
2022/06/06 02:46:01;;;;;;;4.72;2.40;;;;;;;20.94;56.21;101265.31;4818745;29;20030;-80
2022/06/06 02:48:27;;;;;;;2.90;2.42;;;;;;;20.94;56.28;101261.84;4834562;29;20640;-80
2022/06/06 02:50:53;;;;;;;2.95;2.38;;;;;;;20.95;56.21;101264.44;4820725;29;20129;-80
2022/06/06 02:53:19;;;;;;;3.17;2.50;;;;;;;20.94;56.19;101262.69;4837950;29;20034;-80
2022/06/06 02:55:45;;;;;;;3.28;2.60;;;;;;;20.94;56.26;101254.84;4852629;29;20038;-80
2022/06/06 02:58:10;;;;;;;2.67;2.40;;;;;;;20.94;55.82;101254.84;4851086;29;20037;-79
2022/06/06 03:00:41;;;;;;;3.15;2.60;;;;;;;20.94;56.27;101261.84;4835505;29;20077;-80
2022/06/06 03:03:06;;;;;;;3.00;2.47;;;;;;;20.92;56.25;101267.09;4835358;29;20049;-79
2022/06/06 03:05:48;;;;;;;2.55;2.15;;;;;;;20.93;56.04;101267.97;4852083;29;20030;-79
2022/06/06 03:08:47;;;;;;;2.65;2.40;;;;;;;20.93;56.12;101274.06;4835487;29;20512;-80
2022/06/06 03:11:44;;;;;;;3.20;2.35;;;;;;;20.93;56.07;101276.69;4840114;29;20030;-80
2022/06/06 03:14:47;;;;;;;3.67;2.70;;;;;;;20.93;55.96;101288.91;4852673;29;20052;-80
2022/06/06 03:23:17;;;;;;;2.30;2.10;;;;;;;20.93;55.92;101288.91;4852423;29;20090;-80
2022/06/06 03:26:24;;;;;;;2.65;2.42;;;;;;;20.92;55.90;101276.69;4851578;29;20033;-80
2022/06/06 03:29:08;;;;;;;3.33;2.60;;;;;;;20.92;55.89;101274.09;4849939;29;20041;-79
2022/06/06 03:31:53;;;;;;;2.95;2.45;;;;;;;20.92;55.71;101280.16;4849726;29;20045;-80
2022/06/06 03:34:24;;;;;;;2.83;2.28;;;;;;;20.93;55.71;101286.28;4834848;29;20033;-80
2022/06/06 03:37:12;;;;;;;2.97;2.40;;;;;;;20.92;55.77;101287.16;4849844;29;20054;-80
2022/06/06 03:40:00;;;;;;;3.33;2.13;;;;;;;20.93;55.76;101278.44;4857685;29;20093;-80
2022/06/06 03:42:32;;;;;;;2.58;2.25;;;;;;;20.94;55.89;101278.38;4843181;29;20030;-80
2022/06/06 03:45:25;;;;;;;2.85;2.30;;;;;;;20.93;55.54;101281.91;4857961;29;20041;-80
2022/06/06 03:48:17;;;;;;;4.70;2.60;;;;;;;20.93;55.60;101279.28;4853065;29;20046;-80
2022/06/06 03:51:14;;;;;;;2.92;2.35;;;;;;;20.94;55.58;101281.00;4852147;29;20026;-79
2022/06/06 03:53:51;;;;;;;3.00;2.22;;;;;;;20.94;55.74;101281.00;4835193;29;20046;-80
2022/06/06 03:56:23;;;;;;;2.92;2.45;;;;;;;20.94;55.46;101280.16;4850515;29;20036;-80
2022/06/06 03:58:50;;;;;;;3.13;2.60;;;;;;;20.94;55.63;101278.38;4849973;29;20046;-80
2022/06/06 04:01:20;;;;;;;3.13;2.22;;;;;;;20.94;55.75;101277.53;4833854;29;20033;-80
2022/06/06 04:03:49;;;;;;;2.72;2.47;;;;;;;20.94;55.53;101274.91;4834734;29;20097;-79
2022/06/06 04:06:16;;;;;;;3.63;2.40;;;;;;;20.93;55.54;101268.84;4834822;29;20085;-79
2022/06/06 04:08:42;;;;;;;2.92;2.20;;;;;;;20.93;55.53;101266.22;4851140;29;20113;-80
2022/06/06 04:11:17;;;;;;;2.90;2.47;;;;;;;20.93;55.35;101266.22;4819519;29;20098;-80
2022/06/06 04:13:53;;;;;;;2.78;2.20;;;;;;;20.93;55.44;101268.84;4850452;29;20135;-80
2022/06/06 04:16:40;;;;;;;3.55;2.63;;;;;;;20.94;55.53;101270.53;4850262;29;20033;-80
2022/06/06 04:19:12;;;;;;;2.95;2.50;;;;;;;20.95;55.49;101269.66;4835239;29;20041;-80
2022/06/06 04:21:59;;;;;;;5.68;2.40;;;;;;;20.97;55.41;101272.28;4850249;29;20034;-80
2022/06/06 04:24:35;;;;;;;3.10;2.10;;;;;;;20.96;55.27;101271.38;4835295;29;20473;-80
2022/06/06 04:27:15;;;;;;;4.00;2.50;;;;;;;20.96;55.34;101278.38;4853270;29;20041;-80
2022/06/06 04:29:50;;;;;;;3.85;2.20;;;;;;;20.98;55.19;101278.34;4851893;29;20030;-80
2022/06/06 04:32:40;;;;;;;3.90;2.25;;;;;;;20.97;55.38;101282.75;4852644;29;20046;-80
2022/06/06 04:35:12;;;;;;;2.90;2.30;;;;;;;20.97;55.35;101285.34;4853825;29;20037;-80
2022/06/06 04:37:40;;;;;;;2.55;2.10;;;;;;;20.98;55.26;101278.34;4853128;29;20021;-80
2022/06/06 04:40:35;;;;;;;3.17;2.40;;;;;;;20.98;55.13;101283.59;4852029;29;20034;-80
2022/06/06 04:43:15;;;;;;;2.97;2.38;;;;;;;20.98;55.19;101281.84;4836537;29;20042;-80
2022/06/06 04:46:01;;;;;;;2.58;2.10;;;;;;;20.97;55.46;101282.75;4851977;29;20030;-80
2022/06/06 05:30:04;;;;;;;2.22;2.03;;;;;;;21.28;53.46;101276.97;5679044;23;20059;-82
2022/06/06 05:53:31;;;;;;;22.25;8.57;;;;;;;21.76;52.48;101277.81;4979556;23;20120;-88
2022/06/06 05:56:12;;;;;;;11.73;6.20;;;;;;;21.94;51.73;101266.09;4877211;29;20115;-90
2022/06/06 05:59:14;;;;;;;12.40;5.82;;;;;;;21.96;52.05;101272.16;4872492;29;20118;-88
2022/06/06 06:02:17;;;;;;;9.13;4.93;;;;;;;21.87;51.93;101274.13;4873585;29;20029;-90
2022/06/06 06:04:55;;;;;;;10.82;5.25;;;;;;;21.78;52.15;101280.41;4869487;29;20544;-86
2022/06/06 06:07:47;;;;;;;11.48;5.50;;;;;;;22.13;51.42;101265.72;4882009;29;20033;-90
2022/06/06 06:10:26;;;;;;;6.75;4.70;;;;;;;22.08;51.12;101265.81;4880789;29;20029;-87
2022/06/06 06:24:56;;;;;;;8.35;3.70;;;;;;;22.16;51.21;101287.44;5319840;23;20068;-91
2022/06/06 06:27:25;;;;;;;5.32;3.42;;;;;;;22.14;51.22;101277.91;4869316;29;20025;-91
2022/06/06 06:29:50;;;;;;;6.25;3.42;;;;;;;22.31;50.70;101281.03;4869785;29;20033;-91
2022/06/06 06:32:59;;;;;;;5.15;3.42;;;;;;;22.54;49.76;101287.56;4867613;29;20092;-92
2022/06/06 06:35:38;;;;;;;8.05;3.45;;;;;;;22.22;51.34;101283.88;4867360;29;20032;-91
2022/06/06 06:38:38;;;;;;;5.55;3.10;;;;;;;22.41;51.03;101288.69;4864483;29;20108;-86
2022/06/06 06:41:15;;;;;;;5.50;3.38;;;;;;;23.15;49.45;101287.84;4880823;29;20384;-84
2022/06/06 06:44:00;;;;;;;5.25;3.13;;;;;;;23.60;48.47;101277.88;4864558;29;20033;-85
2022/06/06 06:46:43;;;;;;;8.05;3.08;;;;;;;23.69;47.54;101287.25;4864507;29;20063;-88
2022/06/06 06:49:14;;;;;;;5.13;3.08;;;;;;;23.49;48.27;101292.19;4870464;29;20036;-93
2022/06/06 06:58:41;;;;;;;5.60;3.13;;;;;;;22.48;51.00;101300.78;4806490;29;20119;-91
2022/06/06 07:17:23;;;;;;;6.95;3.03;;;;;;;22.29;50.67;101298.56;5627847;23;20064;-89
2022/06/06 07:20:17;;;;;;;5.18;2.65;;;;;;;22.16;51.92;101287.44;4856490;29;20045;-90
2022/06/06 07:28:40;;;;;;;4.93;2.58;;;;;;;22.39;51.16;101299.25;4952132;23;20076;-91
2022/06/06 07:41:08;;;;;;;6.85;2.70;;;;;;;22.15;51.77;101304.09;4924191;23;20056;-87
2022/06/06 07:50:19;;;;;;;8.85;2.80;;;;;;;22.36;50.76;101307.16;4923800;23;20057;-88
2022/06/06 08:52:45;;;;;;;6.93;2.00;;;;;;;22.17;49.51;101296.19;4889121;29;20112;-80
2022/06/06 08:55:37;;;;;;;8.93;2.33;;;;;;;21.75;48.40;101307.53;4861409;29;20036;-80
2022/06/06 08:58:19;;;;;;;14.18;2.28;;;;;;;21.81;48.25;101317.00;4865737;29;20036;-80
2022/06/06 09:01:03;;;;;;;9.20;2.30;;;;;;;22.51;47.07;101305.97;4867092;29;20484;-86
2022/06/06 09:03:41;;;;;;;7.20;2.28;;;;;;;22.50;48.11;101307.72;4865249;29;20302;-83
2022/06/06 09:06:45;;;;;;;10.77;2.13;;;;;;;22.32;47.44;101314.25;4865530;29;20487;-87
2022/06/06 09:09:44;;;;;;;9.32;2.33;;;;;;;22.31;47.41;101307.25;4866265;29;20029;-88
2022/06/06 09:12:40;;;;;;;9.30;2.30;;;;;;;22.15;47.66;101298.84;4864865;29;20037;-84
2022/06/06 09:15:23;;;;;;;8.50;2.45;;;;;;;22.12;47.51;101290.19;4865896;29;20149;-83
2022/06/06 09:18:07;;;;;;;7.28;2.20;;;;;;;21.98;48.10;101296.56;4866875;29;20125;-86
2022/06/06 09:20:55;;;;;;;7.95;2.33;;;;;;;21.96;48.17;101287.88;4865917;29;20064;-86
2022/06/06 09:23:30;;;;;;;10.25;2.50;;;;;;;21.94;48.15;101299.28;4866135;29;20476;-87
2022/06/06 09:26:13;;;;;;;7.72;2.40;;;;;;;21.92;47.92;101296.69;4866725;29;20033;-88
2022/06/06 09:28:56;;;;;;;7.32;2.45;;;;;;;22.02;47.84;101294.75;4866074;29;20104;-84
2022/06/06 09:31:37;;;;;;;7.85;2.20;;;;;;;21.98;47.82;101295.72;4865191;29;20033;-77
2022/06/06 09:34:27;;;;;;;7.63;2.10;;;;;;;21.92;47.67;101304.56;4864377;29;20134;-76
2022/06/06 09:37:18;;;;;;;8.20;2.28;;;;;;;21.96;47.86;101298.34;4864300;29;20029;-77
2022/06/06 09:39:56;;;;;;;8.02;2.08;;;;;;;22.10;47.59;101287.59;4881198;29;20388;-79
2022/06/06 09:42:48;;;;;;;6.60;2.00;;;;;;;22.28;47.68;101278.50;4864461;29;20103;-78
2022/06/06 09:45:29;;;;;;;5.95;2.10;;;;;;;22.28;47.52;101277.66;4864679;29;20040;-78
2022/06/06 09:48:18;;;;;;;8.60;2.00;;;;;;;22.26;47.81;101285.53;4864011;29;20055;-77
2022/06/06 10:00:53;;;;;;;9.82;2.00;;;;;;;22.13;48.93;101269.19;4892259;29;20062;-84
2022/06/06 10:03:48;;;;;;;10.80;2.15;;;;;;;22.08;49.37;101275.41;4872581;29;20033;-81
2022/06/06 10:10:05;;;;;;;14.05;2.53;;;;;;;22.04;48.06;101282.50;4893002;29;20098;-84
2022/06/06 10:16:12;;;;;;;6.00;1.70;;;;;;;22.01;48.69;101281.69;4899741;29;20127;-80
2022/06/06 10:22:21;;;;;;;8.77;2.00;;;;;;;21.97;48.77;101276.53;4898535;29;20085;-86
2022/06/06 10:37:36;;;;;;;5.53;1.90;;;;;;;21.86;49.62;101277.63;5224925;23;20412;-79
2022/06/06 16:16:19;;;;;;;3.15;1.30;;;;;;;21.33;52.89;101401.63;4862492;29;20034;-82
2022/06/06 16:30:46;;;;;;;4.50;1.45;;;;;;;21.37;53.48;101400.69;3292479;23;20058;-81
2022/06/06 17:40:59;;;;;;;18.65;10.10;;;;;;;21.41;53.96;101443.44;4109010;23;20061;-80
2022/06/06 17:43:56;;;;;;;18.70;8.98;;;;;;;21.40;54.91;101444.28;4887999;29;20028;-82
2022/06/06 17:46:33;;;;;;;21.10;8.75;;;;;;;21.38;55.25;101446.06;4885777;29;20073;-80
2022/06/06 17:49:22;;;;;;;28.52;11.45;;;;;;;21.37;54.30;101441.72;4894134;29;20080;-79
2022/06/06 17:51:50;;;;;;;23.23;10.32;;;;;;;21.34;53.71;101441.78;4994282;23;20072;-82
2022/06/06 17:54:55;;;;;;;25.55;9.88;;;;;;;21.31;53.23;101444.44;4886899;29;20033;-82
2022/06/06 17:57:49;;;;;;;25.95;10.35;;;;;;;21.26;53.51;101448.88;4877647;29;20373;-81
2022/06/06 18:00:46;;;;;;;21.20;9.45;;;;;;;21.25;53.11;101449.75;4885569;29;20009;-82
2022/06/06 18:03:29;;;;;;;21.13;9.48;;;;;;;21.25;53.65;101450.66;4838569;29;20050;-81
2022/06/06 18:06:12;;;;;;;21.17;8.20;;;;;;;21.24;53.55;101448.03;4882559;29;20030;-82
2022/06/06 18:09:01;;;;;;;19.92;8.88;;;;;;;21.24;53.28;101446.28;4866203;29;20045;-80
2022/06/06 18:12:04;;;;;;;19.95;7.93;;;;;;;21.22;53.59;101442.81;4866604;29;20026;-80
2022/06/06 18:15:15;;;;;;;20.52;7.80;;;;;;;21.22;53.49;101442.81;4866178;29;20036;-78
2022/06/06 18:18:32;;;;;;;17.08;7.10;;;;;;;21.24;53.44;101448.03;4808031;30;20039;-81
2022/06/06 18:21:14;;;;;;;18.20;7.03;;;;;;;21.22;53.53;101448.06;4787722;30;20039;-80
2022/06/06 18:23:49;;;;;;;16.63;6.93;;;;;;;21.20;52.88;101443.75;4859834;29;20030;-82
2022/06/06 18:26:36;;;;;;;15.85;7.53;;;;;;;21.19;53.01;101442.00;4864569;29;20029;-81
2022/06/06 18:29:27;;;;;;;15.07;6.85;;;;;;;21.21;53.66;101442.84;4866967;29;20025;-80
2022/06/06 18:35:52;;;;;;;16.05;6.25;;;;;;;21.20;53.07;101441.97;4884765;29;20036;-81
2022/06/06 18:45:41;;;;;;;10.35;5.20;;;;;;;21.26;52.98;101443.66;4884992;29;20028;-82
2022/06/06 18:52:08;;;;;;;11.48;5.00;;;;;;;21.26;52.89;101441.03;4884902;29;20152;-81
2022/06/06 18:58:21;;;;;;;9.98;4.88;;;;;;;21.26;52.66;101433.19;4108232;27;20057;-81
2022/06/06 19:01:25;;;;;;;10.55;5.32;;;;;;;21.25;52.82;101429.72;4884892;29;20046;-82
2022/06/06 19:11:34;;;;;;;10.82;4.82;;;;;;;21.22;52.69;101436.72;4864534;29;20045;-81
2022/06/06 19:17:47;;;;;;;10.88;4.45;;;;;;;21.25;52.86;101441.91;4864709;29;20063;-81
2022/06/06 19:24:06;;;;;;;8.48;4.22;;;;;;;21.23;52.46;101443.69;4863800;29;20043;-81
2022/06/06 19:45:38;;;;;;;7.47;3.70;;;;;;;21.23;52.54;101435.81;5577656;23;20053;-81
2022/06/06 19:48:45;;;;;;;8.45;3.63;;;;;;;21.24;52.69;101434.97;4900200;29;20057;-81
2022/06/06 19:52:03;;;;;;;6.13;3.50;;;;;;;21.22;52.18;101437.59;4901964;29;20105;-81
2022/06/06 19:55:24;;;;;;;8.57;3.80;;;;;;;21.23;52.60;101435.81;4846711;29;20093;-81
2022/06/06 19:58:35;;;;;;;5.32;3.05;;;;;;;21.22;52.70;101444.59;4833769;29;20022;-81
2022/06/06 21:59:57;;;;;;;5.05;2.60;;;;;;;21.04;50.76;101375.06;5084229;23;20071;-86
2022/06/06 22:02:22;;;;;;;3.80;2.47;;;;;;;21.05;50.84;101376.78;4865250;29;20045;-86
2022/06/06 22:04:50;;;;;;;4.75;2.72;;;;;;;21.05;50.98;101379.41;4864658;29;20040;-84
2022/06/06 22:07:16;;;;;;;4.50;2.53;;;;;;;21.04;51.02;101375.94;4849700;29;20036;-85
2022/06/06 22:09:42;;;;;;;5.07;2.53;;;;;;;21.00;50.86;101373.41;4849373;29;20040;-80
2022/06/06 22:12:11;;;;;;;4.18;2.50;;;;;;;20.94;50.47;101375.19;4849366;29;20112;-82
2022/06/06 22:14:39;;;;;;;5.85;2.92;;;;;;;20.89;50.70;101369.19;4864876;29;20028;-88
2022/06/06 22:17:04;;;;;;;4.53;2.33;;;;;;;20.83;50.79;101366.66;4881471;29;20131;-87
2022/06/06 22:19:30;;;;;;;5.57;2.50;;;;;;;20.83;50.73;101373.63;4880653;29;20043;-86
2022/06/06 22:21:56;;;;;;;5.28;2.65;;;;;;;20.85;50.82;101375.34;4880984;29;20068;-87
2022/06/06 22:24:21;;;;;;;5.55;2.80;;;;;;;20.85;50.91;101374.47;4881428;29;20041;-87
2022/06/06 22:26:47;;;;;;;5.22;2.80;;;;;;;20.81;50.75;101373.66;4849164;29;20041;-88
2022/06/06 22:29:12;;;;;;;4.10;2.40;;;;;;;20.80;50.82;101366.69;4880975;29;20033;-88
2022/06/06 22:31:38;;;;;;;4.45;2.50;;;;;;;20.82;50.74;101364.94;4864459;29;20032;-88
2022/06/06 22:34:03;;;;;;;3.90;2.40;;;;;;;20.82;50.97;101367.53;4881213;29;20025;-88
2022/06/06 22:36:29;;;;;;;4.13;2.35;;;;;;;20.85;50.96;101358.78;4864479;29;20021;-88
2022/06/06 22:38:55;;;;;;;5.07;2.58;;;;;;;20.85;51.01;101358.78;4881290;29;20119;-88
2022/06/06 22:41:21;;;;;;;7.95;2.67;;;;;;;20.87;51.05;101359.63;4864461;29;20044;-87
2022/06/06 22:43:48;;;;;;;5.75;2.60;;;;;;;20.86;50.98;101355.25;4880168;29;20033;-76
2022/06/06 22:46:14;;;;;;;5.18;2.53;;;;;;;20.84;50.82;101357.94;4880257;29;20028;-88
2022/06/06 22:48:39;;;;;;;3.80;2.60;;;;;;;20.85;50.93;101354.41;4881196;29;20058;-86
2022/06/06 22:51:05;;;;;;;5.30;2.33;;;;;;;20.82;50.86;101354.47;4881548;29;20052;-89
2022/06/06 22:53:32;;;;;;;5.25;2.53;;;;;;;20.86;50.97;101352.66;4864385;29;20039;-88
2022/06/06 22:56:10;;;;;;;6.38;2.67;;;;;;;20.87;51.00;101341.31;4863602;29;20064;-88
2022/06/06 22:58:36;;;;;;;4.88;2.33;;;;;;;20.86;51.00;101340.47;4863657;29;20029;-88
2022/06/06 23:01:13;;;;;;;5.93;2.30;;;;;;;20.88;51.00;101343.03;4863799;29;20458;-88
2022/06/06 23:03:40;;;;;;;4.95;2.30;;;;;;;20.84;50.80;101339.63;4880122;29;20044;-77
2022/06/06 23:06:07;;;;;;;4.43;2.38;;;;;;;20.82;50.90;101337.88;4863105;29;20388;-76
2022/06/06 23:08:33;;;;;;;4.35;2.58;;;;;;;20.82;50.93;101333.53;4863187;29;20028;-76
2022/06/06 23:10:59;;;;;;;2.72;2.08;;;;;;;20.83;50.90;101335.25;4880017;29;20028;-76
2022/06/06 23:13:25;;;;;;;4.07;2.45;;;;;;;20.83;50.97;101337.88;4832690;29;20025;-76
2022/06/06 23:15:52;;;;;;;4.15;2.53;;;;;;;20.79;50.93;101338.81;4879784;29;20028;-76
2022/06/06 23:18:18;;;;;;;4.05;2.40;;;;;;;20.80;50.96;101335.31;4879707;29;20069;-88
2022/06/06 23:20:45;;;;;;;2.97;2.33;;;;;;;20.80;50.95;101329.22;4880269;29;20033;-88
2022/06/06 23:23:10;;;;;;;7.32;2.40;;;;;;;20.78;50.95;101323.16;4863528;29;20037;-88
2022/06/06 23:25:35;;;;;;;4.63;2.60;;;;;;;20.79;51.11;101327.47;4863726;29;20436;-88
2022/06/06 23:28:01;;;;;;;4.70;2.38;;;;;;;20.79;50.91;101324.88;4880239;29;20037;-89
2022/06/06 23:30:28;;;;;;;6.82;2.47;;;;;;;20.79;50.90;101325.72;4865630;29;20384;-87
2022/06/06 23:32:54;;;;;;;4.60;2.40;;;;;;;20.78;50.99;101310.94;4884258;29;20028;-88
2022/06/06 23:35:19;;;;;;;4.88;2.40;;;;;;;20.78;50.92;101316.16;4884338;29;20037;-88
2022/06/06 23:37:59;;;;;;;7.47;2.60;;;;;;;20.81;50.97;101310.03;4867270;29;20450;-88
2022/06/06 23:40:26;;;;;;;3.42;2.35;;;;;;;20.80;50.90;101305.69;4867518;29;20061;-88
2022/06/06 23:42:57;;;;;;;6.13;2.70;;;;;;;20.79;50.98;101307.41;4851869;29;20116;-88
2022/06/06 23:48:15;;;;;;;4.55;2.40;;;;;;;20.78;50.96;101294.38;4870176;29;20049;-88
2022/06/06 23:51:05;;;;;;;4.22;2.50;;;;;;;20.77;51.01;101292.63;4883734;29;20033;-87
2022/06/06 23:53:34;;;;;;;4.47;2.28;;;;;;;20.76;50.90;101299.63;4867105;29;20036;-88
2022/06/06 23:56:05;;;;;;;3.50;2.30;;;;;;;20.73;50.87;101291.81;4866872;29;20025;-88
2022/06/06 23:58:31;;;;;;;5.43;2.60;;;;;;;20.73;50.89;101289.19;4883561;29;20559;-88
